sensor_id;sensor_type;location;lat;lon;timestamp;temperature;humidity
21544;DHT22;10933;50.754;11.508;2023-04-24T08:27:27;15.80;99.90
21544;DHT22;10933;50.754;11.508;2023-04-24T08:29:54;15.50;99.90
21544;DHT22;10933;50.754;11.508;2023-04-24T08:32:20;15.20;99.90
21544;DHT22;10933;50.754;11.508;2023-04-24T08:34:45;15.10;99.90
21544;DHT22;10933;50.754;11.508;2023-04-24T08:37:11;16.90;99.90
21544;DHT22;10933;50.754;11.508;2023-04-24T08:39:37;17.10;99.90
21544;DHT22;10933;50.754;11.508;2023-04-24T08:42:04;15.30;99.90
21544;DHT22;10933;50.754;11.508;2023-04-24T08:44:34;15.80;99.90
21544;DHT22;10933;50.754;11.508;2023-04-24T08:47:02;15.60;99.90
21544;DHT22;10933;50.754;11.508;2023-04-24T08:49:29;15.50;99.90
21544;DHT22;10933;50.754;11.508;2023-04-24T08:51:55;15.30;99.90
21544;DHT22;10933;50.754;11.508;2023-04-24T08:54:21;17.50;99.90
21544;DHT22;10933;50.754;11.508;2023-04-24T08:56:48;15.70;99.90
21544;DHT22;10933;50.754;11.508;2023-04-24T08:59:15;15.80;99.90
21544;DHT22;10933;50.754;11.508;2023-04-24T09:01:42;19.20;99.90
21544;DHT22;10933;50.754;11.508;2023-04-24T09:04:10;16.60;99.90
21544;DHT22;10933;50.754;11.508;2023-04-24T09:06:39;14.80;99.90
21544;DHT22;10933;50.754;11.508;2023-04-24T09:09:08;14.80;99.90
21544;DHT22;10933;50.754;11.508;2023-04-24T09:11:36;14.80;99.90
21544;DHT22;10933;50.754;11.508;2023-04-24T09:14:03;14.50;99.90
21544;DHT22;10933;50.754;11.508;2023-04-24T09:16:29;14.70;99.90
21544;DHT22;10933;50.754;11.508;2023-04-24T09:18:58;14.90;99.90
21544;DHT22;10933;50.754;11.508;2023-04-24T09:21:24;15.20;99.90
21544;DHT22;10933;50.754;11.508;2023-04-24T09:24:03;15.80;99.90
21544;DHT22;10933;50.754;11.508;2023-04-24T09:26:32;16.00;99.90
21544;DHT22;10933;50.754;11.508;2023-04-24T09:29:00;16.10;99.90
21544;DHT22;10933;50.754;11.508;2023-04-24T09:31:27;16.20;99.90
21544;DHT22;10933;50.754;11.508;2023-04-24T09:36:37;16.00;99.90
21544;DHT22;10933;50.754;11.508;2023-04-24T09:39:09;15.50;99.90
21544;DHT22;10933;50.754;11.508;2023-04-24T09:41:44;15.10;99.90
21544;DHT22;10933;50.754;11.508;2023-04-24T09:44:17;14.80;99.90
21544;DHT22;10933;50.754;11.508;2023-04-24T09:46:53;14.90;99.90
21544;DHT22;10933;50.754;11.508;2023-04-24T09:49:24;14.70;99.90
21544;DHT22;10933;50.754;11.508;2023-04-24T09:51:51;14.60;99.90
21544;DHT22;10933;50.754;11.508;2023-04-24T09:54:19;17.10;99.90
21544;DHT22;10933;50.754;11.508;2023-04-24T09:56:48;14.80;99.90
21544;DHT22;10933;50.754;11.508;2023-04-24T09:59:18;15.20;99.90
21544;DHT22;10933;50.754;11.508;2023-04-24T10:01:45;14.90;99.90
21544;DHT22;10933;50.754;11.508;2023-04-24T10:04:23;14.70;99.90
21544;DHT22;10933;50.754;11.508;2023-04-24T10:06:54;14.60;99.90
21544;DHT22;10933;50.754;11.508;2023-04-24T10:09:24;14.70;99.90
21544;DHT22;10933;50.754;11.508;2023-04-24T10:11:53;15.00;99.90
21544;DHT22;10933;50.754;11.508;2023-04-24T10:14:24;15.30;99.90
21544;DHT22;10933;50.754;11.508;2023-04-24T10:16:56;15.80;99.90
21544;DHT22;10933;50.754;11.508;2023-04-24T10:19:34;15.70;99.90
21544;DHT22;10933;50.754;11.508;2023-04-24T10:22:03;15.80;99.90
21544;DHT22;10933;50.754;11.508;2023-04-24T10:24:30;16.40;99.90
21544;DHT22;10933;50.754;11.508;2023-04-24T10:26:57;15.00;99.90
21544;DHT22;10933;50.754;11.508;2023-04-24T10:29:24;17.90;99.90
21544;DHT22;10933;50.754;11.508;2023-04-24T10:31:51;17.60;99.90
21544;DHT22;10933;50.754;11.508;2023-04-24T10:34:18;16.90;99.90
21544;DHT22;10933;50.754;11.508;2023-04-24T10:36:51;16.90;99.90
21544;DHT22;10933;50.754;11.508;2023-04-24T10:39:20;16.50;99.90
21544;DHT22;10933;50.754;11.508;2023-04-24T10:41:48;16.20;99.90
21544;DHT22;10933;50.754;11.508;2023-04-24T10:44:16;16.40;99.90
21544;DHT22;10933;50.754;11.508;2023-04-24T10:46:53;19.50;99.90
21544;DHT22;10933;50.754;11.508;2023-04-24T10:49:30;17.80;99.90
21544;DHT22;10933;50.754;11.508;2023-04-24T10:52:02;16.40;99.90
21544;DHT22;10933;50.754;11.508;2023-04-24T10:54:40;17.40;99.90
21544;DHT22;10933;50.754;11.508;2023-04-24T10:59:51;17.90;99.90
21544;DHT22;10933;50.754;11.508;2023-04-24T11:02:41;18.40;99.90
21544;DHT22;10933;50.754;11.508;2023-04-24T11:05:18;18.80;99.90
21544;DHT22;10933;50.754;11.508;2023-04-24T11:08:14;19.20;99.90
21544;DHT22;10933;50.754;11.508;2023-04-24T11:10:46;18.80;99.90
21544;DHT22;10933;50.754;11.508;2023-04-24T11:13:22;18.90;99.90
21544;DHT22;10933;50.754;11.508;2023-04-24T11:19:26;17.80;99.90
21544;DHT22;10933;50.754;11.508;2023-04-24T11:22:04;19.50;99.90
21544;DHT22;10933;50.754;11.508;2023-04-24T11:27:17;17.60;99.90
21544;DHT22;10933;50.754;11.508;2023-04-24T11:32:28;17.30;99.90
21544;DHT22;10933;50.754;11.508;2023-04-24T11:37:43;16.90;99.90
21544;DHT22;10933;50.754;11.508;2023-04-24T11:40:18;16.40;99.90
21544;DHT22;10933;50.754;11.508;2023-04-24T11:42:52;16.10;99.90
21544;DHT22;10933;50.754;11.508;2023-04-24T11:45:30;16.20;99.90
21544;DHT22;10933;50.754;11.508;2023-04-24T11:50:24;15.60;99.90
21544;DHT22;10933;50.754;11.508;2023-04-24T11:57:46;18.50;99.90
21544;DHT22;10933;50.754;11.508;2023-04-24T12:00:19;17.90;99.90
21544;DHT22;10933;50.754;11.508;2023-04-24T12:05:27;16.40;99.90
21544;DHT22;10933;50.754;11.508;2023-04-24T12:07:53;16.40;99.90
21544;DHT22;10933;50.754;11.508;2023-04-24T12:10:24;17.80;99.90
21544;DHT22;10933;50.754;11.508;2023-04-24T12:15:22;17.40;99.90
21544;DHT22;10933;50.754;11.508;2023-04-24T12:22:53;16.10;99.90
21544;DHT22;10933;50.754;11.508;2023-04-24T12:25:22;16.80;99.90
21544;DHT22;10933;50.754;11.508;2023-04-24T12:27:54;16.50;99.90
21544;DHT22;10933;50.754;11.508;2023-04-24T12:30:41;16.30;99.90
21544;DHT22;10933;50.754;11.508;2023-04-24T12:38:10;17.10;99.90
21544;DHT22;10933;50.754;11.508;2023-04-24T12:40:38;16.50;99.90
21544;DHT22;10933;50.754;11.508;2023-04-24T12:43:18;16.40;99.90
21544;DHT22;10933;50.754;11.508;2023-04-24T12:53:08;16.80;99.90
21544;DHT22;10933;50.754;11.508;2023-04-24T13:02:54;17.60;99.90
21544;DHT22;10933;50.754;11.508;2023-04-24T13:15:06;15.50;99.90
21544;DHT22;10933;50.754;11.508;2023-04-24T13:19:59;15.40;99.90
21544;DHT22;10933;50.754;11.508;2023-04-24T13:22:25;15.50;99.90
21544;DHT22;10933;50.754;11.508;2023-04-24T13:27:17;15.90;99.90
21544;DHT22;10933;50.754;11.508;2023-04-24T13:32:10;15.50;99.90
21544;DHT22;10933;50.754;11.508;2023-04-24T13:37:02;15.10;99.90
21544;DHT22;10933;50.754;11.508;2023-04-24T13:41:55;15.20;99.90
21544;DHT22;10933;50.754;11.508;2023-04-24T13:44:22;15.00;99.90
21544;DHT22;10933;50.754;11.508;2023-04-24T13:46:50;15.00;99.90
21544;DHT22;10933;50.754;11.508;2023-04-24T13:49:20;14.50;99.90
21544;DHT22;10933;50.754;11.508;2023-04-24T13:56:40;14.60;99.90
21544;DHT22;10933;50.754;11.508;2023-04-24T14:11:18;13.70;99.90
21544;DHT22;10933;50.754;11.508;2023-04-24T14:21:04;12.50;99.90
21544;DHT22;10933;50.754;11.508;2023-04-24T14:25:57;13.30;99.90
21544;DHT22;10933;50.754;11.508;2023-04-24T14:38:11;12.80;99.90
21544;DHT22;10933;50.754;11.508;2023-04-24T14:47:56;14.50;99.90
21544;DHT22;10933;50.754;11.508;2023-04-24T17:51:13;11.70;99.90
21544;DHT22;10933;50.754;11.508;2023-04-24T17:56:06;11.60;99.90
21544;DHT22;10933;50.754;11.508;2023-04-24T18:30:21;11.30;99.90
21544;DHT22;10933;50.754;11.508;2023-04-24T18:40:13;11.10;99.90
21544;DHT22;10933;50.754;11.508;2023-04-24T18:42:39;11.00;99.90
21544;DHT22;10933;50.754;11.508;2023-04-24T19:21:40;10.60;99.90
21544;DHT22;10933;50.754;11.508;2023-04-24T19:24:06;10.50;99.90
21544;DHT22;10933;50.754;11.508;2023-04-24T22:20:11;5.90;99.90
21544;DHT22;10933;50.754;11.508;2023-04-24T23:45:37;6.00;99.90
